Alyeska Resort
Hourly Weather - Mid Mountian Site
ALY_MID_HR 9/29/2016
CLICK TO VIEW GRAPH!!

        DATE  TIME   Air   H2o   H2o   New  Snow  BATT   Rel
                    Temp  Inch Since  Snow Depth  Volt  Hum%
                      F   1HR  0600   1HR         AVG   AVG

   9/29/2016 08:00    38  0.00  0.00  53.0  6.81 13.35    87
   9/29/2016 07:00    39  0.00  0.00  53.3 16.08 13.35    85
   9/29/2016 06:00    39  0.00  0.00  53.6 10.83 13.34    81
   9/29/2016 05:00    40  0.00  0.00  54.1  5.15 13.33    80
   9/29/2016 04:00    40  0.00  0.00  54.5  6.59 13.32    78
   9/29/2016 03:00    41  0.00  0.00  54.6  4.24 13.32    77
   9/29/2016 02:00    41  0.00  0.00  55.5  4.29 13.31    76
   9/29/2016 01:00    41  0.00  0.00  55.9  4.20 13.30    77
   9/28/2016 24:00    43  0.00  0.00  55.9  5.29 13.30    72
   9/28/2016 23:00    42  0.00  0.00  56.2  5.86 13.30    72
   9/28/2016 22:00    43  0.00  0.00  57.2  6.32 13.29    69
   9/28/2016 21:00    42  0.00  0.00  59.8  4.79 13.29    72
   9/28/2016 20:00    43  0.00  0.00  64.0  7.58 13.27    72
   9/28/2016 19:00    45  0.00  0.00  66.6  5.25 13.25    70
   9/28/2016 18:00    48  0.00  0.00  66.6  5.63 13.25    64
   9/28/2016 17:00    47  0.00  0.00  66.1  7.19 13.26    65
   9/28/2016 16:00    47  0.00  0.00  63.1  4.49 13.28    69
   9/28/2016 15:00    44  0.00  0.00  59.5  5.95 13.30    73
   9/28/2016 14:00    43  0.00  0.00  58.4  6.43 13.32    78
   9/28/2016 13:00    42  0.00  0.00  56.5  6.96 13.34    78
   9/28/2016 12:00    42  0.00  0.00  54.4 14.11 13.36    78
   9/28/2016 11:00    38  0.00  0.00  52.1  7.66 13.38    84
   9/28/2016 10:00    37  0.00  0.00  51.7  7.47 13.39    85
   9/28/2016 09:00    37  0.00  0.00  51.6  5.72 13.38    89


CLICK TO VIEW GRAPH!!